sensor_id;sensor_type;location;lat;lon;timestamp;pressure;altitude;pressure_sealevel;temperature;humidity
28797;BME280;24974;54.444;18.560;2023-08-07T06:26:22;99150.47;;;19.51;59.94
28797;BME280;24974;54.444;18.560;2023-08-07T06:37:13;99142.47;;;19.56;59.04
28797;BME280;24974;54.444;18.560;2023-08-07T06:39:44;99150.41;;;19.65;59.78
28797;BME280;24974;54.444;18.560;2023-08-07T06:42:16;99154.41;;;19.53;59.52
28797;BME280;24974;54.444;18.560;2023-08-07T06:44:48;99173.28;;;19.94;58.47
28797;BME280;24974;54.444;18.560;2023-08-07T06:47:19;99171.59;;;19.45;59.98
28797;BME280;24974;54.444;18.560;2023-08-07T06:49:49;99161.03;;;20.33;57.49
28797;BME280;24974;54.444;18.560;2023-08-07T06:52:20;99169.25;;;20.02;58.43
28797;BME280;24974;54.444;18.560;2023-08-07T06:54:51;99171.88;;;19.68;58.90
28797;BME280;24974;54.444;18.560;2023-08-07T06:57:22;99190.69;;;19.43;59.58
28797;BME280;24974;54.444;18.560;2023-08-07T06:59:53;99188.31;;;19.38;59.55
28797;BME280;24974;54.444;18.560;2023-08-07T07:02:24;99196.19;;;20.23;57.77
28797;BME280;24974;54.444;18.560;2023-08-07T07:04:55;99189.31;;;19.79;58.76
28797;BME280;24974;54.444;18.560;2023-08-07T07:07:26;99189.97;;;20.53;57.00
28797;BME280;24974;54.444;18.560;2023-08-07T07:09:56;99202.50;;;20.27;56.89
28797;BME280;24974;54.444;18.560;2023-08-07T07:12:30;99181.97;;;20.03;58.37
28797;BME280;24974;54.444;18.560;2023-08-07T07:15:01;99203.88;;;20.05;57.77
28797;BME280;24974;54.444;18.560;2023-08-07T07:17:32;99199.41;;;20.18;57.69
28797;BME280;24974;54.444;18.560;2023-08-07T07:20:03;99196.38;;;19.98;58.20
28797;BME280;24974;54.444;18.560;2023-08-07T07:22:34;99179.88;;;19.66;58.66
28797;BME280;24974;54.444;18.560;2023-08-07T07:25:04;99202.34;;;20.00;57.82
28797;BME280;24974;54.444;18.560;2023-08-07T07:27:35;99180.53;;;19.81;58.38
28797;BME280;24974;54.444;18.560;2023-08-07T07:30:06;99178.16;;;19.83;58.22
28797;BME280;24974;54.444;18.560;2023-08-07T07:32:37;99184.34;;;20.08;57.43
28797;BME280;24974;54.444;18.560;2023-08-07T07:35:09;99189.69;;;19.85;58.09
28797;BME280;24974;54.444;18.560;2023-08-07T07:37:40;99206.50;;;19.74;58.02
28797;BME280;24974;54.444;18.560;2023-08-07T07:40:11;99206.38;;;20.48;56.24
28797;BME280;24974;54.444;18.560;2023-08-07T07:42:41;99214.38;;;20.46;56.31
28797;BME280;24974;54.444;18.560;2023-08-07T07:45:12;99186.16;;;21.12;54.99
28797;BME280;24974;54.444;18.560;2023-08-07T07:47:43;99180.22;;;21.10;55.01
28797;BME280;24974;54.444;18.560;2023-08-07T07:50:14;99190.63;;;20.68;55.30
28797;BME280;24974;54.444;18.560;2023-08-07T07:52:44;99202.06;;;20.81;55.64
28797;BME280;24974;54.444;18.560;2023-08-07T07:55:15;99209.41;;;20.16;56.56
28797;BME280;24974;54.444;18.560;2023-08-07T07:57:46;99202.31;;;20.56;55.96
28797;BME280;24974;54.444;18.560;2023-08-07T08:00:17;99186.81;;;21.57;53.49
28797;BME280;24974;54.444;18.560;2023-08-07T08:02:50;99203.75;;;20.71;55.41
28797;BME280;24974;54.444;18.560;2023-08-07T08:10:54;99261.59;;;20.11;56.43
28797;BME280;24974;54.444;18.560;2023-08-07T08:13:25;99222.34;;;21.22;54.26
28797;BME280;24974;54.444;18.560;2023-08-07T08:15:55;99209.47;;;21.32;54.07
28797;BME280;24974;54.444;18.560;2023-08-07T08:18:27;99215.91;;;20.91;54.56
28797;BME280;24974;54.444;18.560;2023-08-07T08:20:57;99206.28;;;20.58;55.26
28797;BME280;24974;54.444;18.560;2023-08-07T08:23:28;99214.13;;;20.71;54.94
28797;BME280;24974;54.444;18.560;2023-08-07T08:25:58;99224.25;;;20.95;54.64
28797;BME280;24974;54.444;18.560;2023-08-07T08:28:29;99244.88;;;20.11;55.68
28797;BME280;24974;54.444;18.560;2023-08-07T08:30:59;99218.00;;;20.35;55.50
28797;BME280;24974;54.444;18.560;2023-08-07T08:33:30;99209.53;;;20.91;54.70
28797;BME280;24974;54.444;18.560;2023-08-07T08:36:01;99216.75;;;20.47;55.69
28797;BME280;24974;54.444;18.560;2023-08-07T08:38:31;99244.38;;;20.76;55.02
28797;BME280;24974;54.444;18.560;2023-08-07T08:41:04;99230.81;;;21.15;54.16
28797;BME280;24974;54.444;18.560;2023-08-07T08:43:37;99229.50;;;20.45;55.27
28797;BME280;24974;54.444;18.560;2023-08-07T08:46:08;99243.56;;;20.79;54.62
28797;BME280;24974;54.444;18.560;2023-08-07T08:48:39;99238.38;;;20.29;55.14
28797;BME280;24974;54.444;18.560;2023-08-07T08:51:10;99241.75;;;20.58;55.21
28797;BME280;24974;54.444;18.560;2023-08-07T08:53:42;99267.13;;;20.78;54.74
28797;BME280;24974;54.444;18.560;2023-08-07T08:56:13;99247.94;;;20.31;56.04
28797;BME280;24974;54.444;18.560;2023-08-07T08:58:44;99260.84;;;20.04;55.54
28797;BME280;24974;54.444;18.560;2023-08-07T09:01:15;99272.78;;;21.08;53.53
28797;BME280;24974;54.444;18.560;2023-08-07T09:03:47;99320.13;;;21.22;52.97
28797;BME280;24974;54.444;18.560;2023-08-07T09:06:17;99285.06;;;20.77;54.09
28797;BME280;24974;54.444;18.560;2023-08-07T09:08:49;99301.19;;;21.00;53.69
28797;BME280;24974;54.444;18.560;2023-08-07T09:11:21;99312.63;;;21.16;53.41
28797;BME280;24974;54.444;18.560;2023-08-07T09:13:52;99308.78;;;20.99;54.02
28797;BME280;24974;54.444;18.560;2023-08-07T09:16:24;99303.47;;;21.53;52.89
28797;BME280;24974;54.444;18.560;2023-08-07T09:18:55;99297.03;;;21.90;51.63
28797;BME280;24974;54.444;18.560;2023-08-07T09:21:26;99286.97;;;21.62;52.01
28797;BME280;24974;54.444;18.560;2023-08-07T09:23:57;99292.41;;;21.76;51.72
28797;BME280;24974;54.444;18.560;2023-08-07T09:26:28;99303.50;;;21.49;52.27
28797;BME280;24974;54.444;18.560;2023-08-07T09:28:58;99311.88;;;21.08;52.81
28797;BME280;24974;54.444;18.560;2023-08-07T09:31:29;99322.34;;;21.01;52.54
28797;BME280;24974;54.444;18.560;2023-08-07T09:34:04;99335.22;;;21.36;52.05
28797;BME280;24974;54.444;18.560;2023-08-07T09:36:35;99323.06;;;21.84;51.16
28797;BME280;24974;54.444;18.560;2023-08-07T09:39:05;99326.53;;;21.23;52.63
28797;BME280;24974;54.444;18.560;2023-08-07T09:41:36;99330.00;;;22.06;50.30
28797;BME280;24974;54.444;18.560;2023-08-07T09:44:07;99325.84;;;21.53;51.42
28797;BME280;24974;54.444;18.560;2023-08-07T09:46:42;99325.59;;;21.74;51.03
28797;BME280;24974;54.444;18.560;2023-08-07T09:49:13;99324.50;;;21.99;50.49
28797;BME280;24974;54.444;18.560;2023-08-07T09:51:44;99323.88;;;21.84;50.85
28797;BME280;24974;54.444;18.560;2023-08-07T09:54:15;99343.69;;;22.27;49.74
28797;BME280;24974;54.444;18.560;2023-08-07T09:56:46;99353.69;;;21.98;50.05
28797;BME280;24974;54.444;18.560;2023-08-07T09:59:18;99352.50;;;21.20;51.85
28797;BME280;24974;54.444;18.560;2023-08-07T10:01:49;99342.47;;;21.64;51.04
28797;BME280;24974;54.444;18.560;2023-08-07T10:04:23;99337.38;;;23.24;47.66
28797;BME280;24974;54.444;18.560;2023-08-07T10:06:54;99329.63;;;21.36;52.01
28797;BME280;24974;54.444;18.560;2023-08-07T10:09:24;99329.84;;;21.52;51.64
28797;BME280;24974;54.444;18.560;2023-08-07T10:11:57;99320.94;;;21.95;50.28
28797;BME280;24974;54.444;18.560;2023-08-07T10:14:29;99317.28;;;22.28;49.80
28797;BME280;24974;54.444;18.560;2023-08-07T10:17:00;99329.81;;;21.90;49.87
28797;BME280;24974;54.444;18.560;2023-08-07T10:19:31;99334.66;;;22.16;49.05
28797;BME280;24974;54.444;18.560;2023-08-07T10:22:01;99336.31;;;22.41;49.18
28797;BME280;24974;54.444;18.560;2023-08-07T10:24:34;99349.84;;;21.50;51.13
28797;BME280;24974;54.444;18.560;2023-08-07T10:27:05;99384.63;;;20.98;51.71
28797;BME280;24974;54.444;18.560;2023-08-07T10:29:37;99368.94;;;21.56;51.01
28797;BME280;24974;54.444;18.560;2023-08-07T10:32:09;99363.00;;;22.18;49.01
28797;BME280;24974;54.444;18.560;2023-08-07T10:34:40;99361.84;;;22.46;48.67
28797;BME280;24974;54.444;18.560;2023-08-07T10:40:03;99363.88;;;23.43;46.47
28797;BME280;24974;54.444;18.560;2023-08-07T10:45:19;99364.84;;;21.64;48.75
28797;BME280;24974;54.444;18.560;2023-08-07T10:50:32;99378.38;;;22.03;48.06
28797;BME280;24974;54.444;18.560;2023-08-07T10:53:03;99379.09;;;22.11;47.86
28797;BME280;24974;54.444;18.560;2023-08-07T10:55:43;99378.03;;;21.22;49.39
28797;BME280;24974;54.444;18.560;2023-08-07T10:58:25;99359.00;;;21.06;49.84
28797;BME280;24974;54.444;18.560;2023-08-07T11:03:42;99353.19;;;21.35;49.17
28797;BME280;24974;54.444;18.560;2023-08-07T11:06:13;99350.88;;;21.64;48.78
28797;BME280;24974;54.444;18.560;2023-08-07T11:08:44;99358.78;;;22.03;47.91
28797;BME280;24974;54.444;18.560;2023-08-07T11:11:14;99370.28;;;22.43;46.66
28797;BME280;24974;54.444;18.560;2023-08-07T11:13:45;99376.44;;;21.96;47.44
28797;BME280;24974;54.444;18.560;2023-08-07T11:16:16;99362.88;;;22.29;46.70
28797;BME280;24974;54.444;18.560;2023-08-07T11:18:48;99378.72;;;21.74;47.71
28797;BME280;24974;54.444;18.560;2023-08-07T11:21:19;99384.47;;;22.86;46.13
28797;BME280;24974;54.444;18.560;2023-08-07T11:23:50;99376.31;;;22.41;46.30
28797;BME280;24974;54.444;18.560;2023-08-07T11:26:20;99400.38;;;22.35;47.06
28797;BME280;24974;54.444;18.560;2023-08-07T11:28:56;99411.19;;;21.16;49.27
28797;BME280;24974;54.444;18.560;2023-08-07T11:31:27;99398.78;;;21.21;49.20
28797;BME280;24974;54.444;18.560;2023-08-07T11:33:58;99428.22;;;21.36;48.77
28797;BME280;24974;54.444;18.560;2023-08-07T11:36:28;99383.75;;;21.53;49.13
28797;BME280;24974;54.444;18.560;2023-08-07T11:38:59;99386.41;;;22.01;47.80
28797;BME280;24974;54.444;18.560;2023-08-07T11:41:31;99389.25;;;21.15;49.56
28797;BME280;24974;54.444;18.560;2023-08-07T11:44:02;99414.97;;;21.82;48.46
28797;BME280;24974;54.444;18.560;2023-08-07T11:46:32;99395.63;;;22.32;47.63
28797;BME280;24974;54.444;18.560;2023-08-07T11:49:03;99411.28;;;21.06;49.74
28797;BME280;24974;54.444;18.560;2023-08-07T11:51:34;99397.50;;;21.74;48.64
28797;BME280;24974;54.444;18.560;2023-08-07T11:54:05;99424.03;;;21.59;49.24
28797;BME280;24974;54.444;18.560;2023-08-07T11:56:36;99419.78;;;22.49;47.43
28797;BME280;24974;54.444;18.560;2023-08-07T11:59:07;99423.00;;;20.86;50.48
28797;BME280;24974;54.444;18.560;2023-08-07T12:01:38;99391.00;;;21.46;49.88
28797;BME280;24974;54.444;18.560;2023-08-07T12:04:10;99399.78;;;20.97;50.64
28797;BME280;24974;54.444;18.560;2023-08-07T12:06:52;99417.91;;;21.71;49.13
28797;BME280;24974;54.444;18.560;2023-08-07T12:09:22;99394.31;;;22.10;48.64
28797;BME280;24974;54.444;18.560;2023-08-07T12:11:56;99395.44;;;21.78;48.95
28797;BME280;24974;54.444;18.560;2023-08-07T12:14:30;99380.16;;;21.52;49.86
28797;BME280;24974;54.444;18.560;2023-08-07T12:17:01;99403.72;;;23.07;46.48
28797;BME280;24974;54.444;18.560;2023-08-07T12:19:39;99415.13;;;22.39;47.98
28797;BME280;24974;54.444;18.560;2023-08-07T12:22:10;99415.47;;;21.35;50.04
28797;BME280;24974;54.444;18.560;2023-08-07T12:24:41;99411.22;;;21.61;49.56
28797;BME280;24974;54.444;18.560;2023-08-07T12:27:13;99405.41;;;21.79;49.52
28797;BME280;24974;54.444;18.560;2023-08-07T12:29:43;99409.28;;;21.55;49.88
28797;BME280;24974;54.444;18.560;2023-08-07T12:32:14;99415.41;;;21.80;48.53
28797;BME280;24974;54.444;18.560;2023-08-07T12:34:44;99401.16;;;22.36;48.56
28797;BME280;24974;54.444;18.560;2023-08-07T12:37:15;99420.97;;;23.06;46.43
28797;BME280;24974;54.444;18.560;2023-08-07T12:39:45;99439.75;;;21.83;49.34
28797;BME280;24974;54.444;18.560;2023-08-07T12:42:16;99454.78;;;21.55;49.96
28797;BME280;24974;54.444;18.560;2023-08-07T12:44:47;99446.31;;;21.66;49.68
28797;BME280;24974;54.444;18.560;2023-08-07T12:47:17;99429.56;;;21.66;49.06
28797;BME280;24974;54.444;18.560;2023-08-07T12:49:48;99410.53;;;20.98;51.18
28797;BME280;24974;54.444;18.560;2023-08-07T12:52:19;99400.09;;;21.54;49.79
28797;BME280;24974;54.444;18.560;2023-08-07T12:54:49;99392.34;;;21.69;49.69
28797;BME280;24974;54.444;18.560;2023-08-07T12:57:20;99404.31;;;21.32;50.27
28797;BME280;24974;54.444;18.560;2023-08-07T12:59:50;99416.22;;;21.39;49.94
28797;BME280;24974;54.444;18.560;2023-08-07T13:02:21;99426.47;;;21.49;49.96
28797;BME280;24974;54.444;18.560;2023-08-07T13:04:52;99430.16;;;21.84;49.47
28797;BME280;24974;54.444;18.560;2023-08-07T13:07:23;99445.84;;;21.30;50.09
28797;BME280;24974;54.444;18.560;2023-08-07T13:09:55;99437.88;;;22.07;48.85
28797;BME280;24974;54.444;18.560;2023-08-07T13:12:25;99439.50;;;22.69;47.33
28797;BME280;24974;54.444;18.560;2023-08-07T13:14:56;99452.22;;;21.30;49.91
28797;BME280;24974;54.444;18.560;2023-08-07T13:17:27;99443.59;;;21.07;50.55
28797;BME280;24974;54.444;18.560;2023-08-07T13:19:58;99451.38;;;21.33;50.47
28797;BME280;24974;54.444;18.560;2023-08-07T13:22:29;99473.56;;;21.58;49.86
28797;BME280;24974;54.444;18.560;2023-08-07T13:25:00;99490.03;;;21.45;50.02
28797;BME280;24974;54.444;18.560;2023-08-07T13:27:32;99489.03;;;21.14;50.60
28797;BME280;24974;54.444;18.560;2023-08-07T13:30:04;99481.81;;;21.20;50.58
28797;BME280;24974;54.444;18.560;2023-08-07T13:32:35;99505.84;;;21.11;50.49
28797;BME280;24974;54.444;18.560;2023-08-07T13:35:06;99514.41;;;21.41;49.95
28797;BME280;24974;54.444;18.560;2023-08-07T13:37:37;99497.91;;;21.02;50.63
28797;BME280;24974;54.444;18.560;2023-08-07T13:40:08;99511.16;;;20.84;50.93
28797;BME280;24974;54.444;18.560;2023-08-07T13:42:41;99496.81;;;20.85;51.06
28797;BME280;24974;54.444;18.560;2023-08-07T13:45:12;99515.47;;;20.99;50.43
28797;BME280;24974;54.444;18.560;2023-08-07T13:47:43;99512.72;;;20.92;51.00
28797;BME280;24974;54.444;18.560;2023-08-07T13:50:14;99519.34;;;21.19;49.91
28797;BME280;24974;54.444;18.560;2023-08-07T13:52:45;99511.69;;;21.31;49.68
28797;BME280;24974;54.444;18.560;2023-08-07T13:55:16;99503.81;;;21.15;50.13
28797;BME280;24974;54.444;18.560;2023-08-07T13:57:47;99510.19;;;21.15;50.17
28797;BME280;24974;54.444;18.560;2023-08-07T14:00:18;99511.81;;;21.68;48.76
28797;BME280;24974;54.444;18.560;2023-08-07T14:02:48;99498.22;;;21.15;50.32
28797;BME280;24974;54.444;18.560;2023-08-07T14:05:19;99496.28;;;21.60;49.27
28797;BME280;24974;54.444;18.560;2023-08-07T14:07:49;99507.69;;;21.32;50.33
28797;BME280;24974;54.444;18.560;2023-08-07T14:10:20;99525.94;;;20.84;50.93
28797;BME280;24974;54.444;18.560;2023-08-07T14:12:50;99514.69;;;20.99;50.68
28797;BME280;24974;54.444;18.560;2023-08-07T14:15:21;99526.72;;;20.88;51.47
28797;BME280;24974;54.444;18.560;2023-08-07T14:17:51;99549.44;;;20.90;51.89
28797;BME280;24974;54.444;18.560;2023-08-07T14:20:22;99523.78;;;21.69;50.38
28797;BME280;24974;54.444;18.560;2023-08-07T14:22:53;99533.66;;;21.81;49.64
28797;BME280;24974;54.444;18.560;2023-08-07T14:25:23;99551.44;;;20.93;51.93
28797;BME280;24974;54.444;18.560;2023-08-07T14:27:54;99543.53;;;20.74;53.66
28797;BME280;24974;54.444;18.560;2023-08-07T14:30:24;99545.75;;;19.99;55.79
28797;BME280;24974;54.444;18.560;2023-08-07T14:32:55;99532.84;;;20.58;54.36
28797;BME280;24974;54.444;18.560;2023-08-07T14:35:26;99536.88;;;20.36;54.80
28797;BME280;24974;54.444;18.560;2023-08-07T14:37:56;99535.63;;;20.58;54.44
28797;BME280;24974;54.444;18.560;2023-08-07T14:40:27;99556.84;;;20.31;55.21
28797;BME280;24974;54.444;18.560;2023-08-07T14:42:58;99569.66;;;19.61;57.57
28797;BME280;24974;54.444;18.560;2023-08-07T14:45:29;99557.56;;;20.53;56.28
28797;BME280;24974;54.444;18.560;2023-08-07T14:47:59;99561.06;;;20.82;55.38
28797;BME280;24974;54.444;18.560;2023-08-07T14:50:30;99556.78;;;20.56;57.29
28797;BME280;24974;54.444;18.560;2023-08-07T14:53:00;99571.63;;;20.06;58.91
28797;BME280;24974;54.444;18.560;2023-08-07T14:55:31;99564.00;;;19.32;62.24
28797;BME280;24974;54.444;18.560;2023-08-07T14:58:02;99567.22;;;19.55;61.33
28797;BME280;24974;54.444;18.560;2023-08-07T15:00:34;99563.66;;;19.73;60.35
28797;BME280;24974;54.444;18.560;2023-08-07T15:03:05;99552.13;;;19.74;60.02
28797;BME280;24974;54.444;18.560;2023-08-07T15:05:36;99550.09;;;19.53;60.26
28797;BME280;24974;54.444;18.560;2023-08-07T15:08:06;99565.66;;;19.79;59.61
28797;BME280;24974;54.444;18.560;2023-08-07T15:10:37;99563.63;;;20.19;57.70
28797;BME280;24974;54.444;18.560;2023-08-07T15:13:10;99574.44;;;19.81;58.02
28797;BME280;24974;54.444;18.560;2023-08-07T15:15:40;99548.84;;;20.33;57.08
28797;BME280;24974;54.444;18.560;2023-08-07T15:18:11;99555.53;;;20.67;55.72
28797;BME280;24974;54.444;18.560;2023-08-07T15:20:42;99566.38;;;20.33;56.55
28797;BME280;24974;54.444;18.560;2023-08-07T15:23:12;99559.25;;;20.15;57.03
28797;BME280;24974;54.444;18.560;2023-08-07T15:25:43;99569.63;;;19.71;58.50
28797;BME280;24974;54.444;18.560;2023-08-07T15:28:14;99567.66;;;20.00;58.18
28797;BME280;24974;54.444;18.560;2023-08-07T15:30:48;99556.47;;;20.07;58.12
28797;BME280;24974;54.444;18.560;2023-08-07T15:33:19;99566.63;;;20.85;55.74
28797;BME280;24974;54.444;18.560;2023-08-07T15:35:50;99565.47;;;20.76;56.02
28797;BME280;24974;54.444;18.560;2023-08-07T15:38:23;99546.84;;;20.44;55.54
28797;BME280;24974;54.444;18.560;2023-08-07T15:40:54;99571.19;;;19.47;58.25
28797;BME280;24974;54.444;18.560;2023-08-07T15:43:25;99561.81;;;20.89;54.83
28797;BME280;24974;54.444;18.560;2023-08-07T15:45:56;99566.84;;;21.16;53.79
28797;BME280;24974;54.444;18.560;2023-08-07T15:48:27;99571.25;;;21.13;53.81
28797;BME280;24974;54.444;18.560;2023-08-07T15:50:57;99555.03;;;20.90;53.81
28797;BME280;24974;54.444;18.560;2023-08-07T15:53:28;99548.00;;;20.57;53.93
28797;BME280;24974;54.444;18.560;2023-08-07T15:55:59;99556.41;;;20.29;55.00
28797;BME280;24974;54.444;18.560;2023-08-07T15:58:29;99541.28;;;20.26;54.79
28797;BME280;24974;54.444;18.560;2023-08-07T16:01:00;99551.75;;;19.58;55.51
28797;BME280;24974;54.444;18.560;2023-08-07T16:03:30;99536.91;;;20.25;54.51
28797;BME280;24974;54.444;18.560;2023-08-07T16:06:01;99542.06;;;20.34;54.23
28797;BME280;24974;54.444;18.560;2023-08-07T16:08:31;99544.03;;;20.51;54.07
28797;BME280;24974;54.444;18.560;2023-08-07T16:11:02;99544.44;;;20.39;54.22
28797;BME280;24974;54.444;18.560;2023-08-07T16:13:34;99553.69;;;20.07;55.29
28797;BME280;24974;54.444;18.560;2023-08-07T16:16:05;99543.69;;;20.21;55.00
28797;BME280;24974;54.444;18.560;2023-08-07T16:18:35;99550.81;;;20.54;54.08
28797;BME280;24974;54.444;18.560;2023-08-07T16:21:07;99565.06;;;20.77;54.08
28797;BME280;24974;54.444;18.560;2023-08-07T16:23:37;99570.28;;;20.72;53.81
28797;BME280;24974;54.444;18.560;2023-08-07T16:26:08;99559.59;;;20.42;54.83
28797;BME280;24974;54.444;18.560;2023-08-07T16:28:38;99569.59;;;20.25;55.40
28797;BME280;24974;54.444;18.560;2023-08-07T16:31:09;99573.25;;;19.90;56.04
28797;BME280;24974;54.444;18.560;2023-08-07T16:33:40;99583.59;;;19.75;56.74
28797;BME280;24974;54.444;18.560;2023-08-07T16:36:11;99584.78;;;19.81;56.04
28797;BME280;24974;54.444;18.560;2023-08-07T16:38:41;99593.16;;;19.60;56.92
28797;BME280;24974;54.444;18.560;2023-08-07T16:41:12;99592.69;;;20.32;55.67
28797;BME280;24974;54.444;18.560;2023-08-07T16:43:43;99608.28;;;20.01;55.36
28797;BME280;24974;54.444;18.560;2023-08-07T16:46:13;99609.09;;;19.84;56.63
28797;BME280;24974;54.444;18.560;2023-08-07T16:48:47;99617.03;;;19.96;55.91
28797;BME280;24974;54.444;18.560;2023-08-07T16:51:17;99607.44;;;20.26;55.20
28797;BME280;24974;54.444;18.560;2023-08-07T16:53:49;99600.28;;;20.25;55.24
28797;BME280;24974;54.444;18.560;2023-08-07T16:56:19;99600.31;;;19.75;56.29
28797;BME280;24974;54.444;18.560;2023-08-07T16:58:50;99627.00;;;19.90;55.50
28797;BME280;24974;54.444;18.560;2023-08-07T17:01:21;99592.34;;;20.05;55.35
28797;BME280;24974;54.444;18.560;2023-08-07T17:03:52;99585.94;;;20.16;54.72
28797;BME280;24974;54.444;18.560;2023-08-07T17:06:23;99588.69;;;20.37;54.03
28797;BME280;24974;54.444;18.560;2023-08-07T17:08:54;99596.31;;;20.19;54.33
28797;BME280;24974;54.444;18.560;2023-08-07T17:11:24;99589.16;;;19.93;55.22
28797;BME280;24974;54.444;18.560;2023-08-07T17:13:58;99580.00;;;20.14;54.66
28797;BME280;24974;54.444;18.560;2023-08-07T17:16:29;99585.97;;;20.01;55.21
28797;BME280;24974;54.444;18.560;2023-08-07T17:18:59;99590.28;;;20.42;54.51
28797;BME280;24974;54.444;18.560;2023-08-07T17:21:30;99601.03;;;20.57;53.96
28797;BME280;24974;54.444;18.560;2023-08-07T17:24:00;99593.75;;;20.88;53.03
28797;BME280;24974;54.444;18.560;2023-08-07T17:26:31;99594.75;;;19.68;56.61
28797;BME280;24974;54.444;18.560;2023-08-07T17:29:02;99599.03;;;19.29;57.44
28797;BME280;24974;54.444;18.560;2023-08-07T17:31:33;99591.13;;;19.49;56.75
28797;BME280;24974;54.444;18.560;2023-08-07T17:34:05;99609.06;;;19.59;56.26
28797;BME280;24974;54.444;18.560;2023-08-07T17:36:36;99603.06;;;19.50;56.79
28797;BME280;24974;54.444;18.560;2023-08-07T17:39:06;99604.78;;;18.67;59.11
28797;BME280;24974;54.444;18.560;2023-08-07T17:41:37;99590.97;;;18.89;59.21
28797;BME280;24974;54.444;18.560;2023-08-07T17:44:08;99583.44;;;18.96;58.51
28797;BME280;24974;54.444;18.560;2023-08-07T17:46:38;99592.94;;;18.88;58.65
28797;BME280;24974;54.444;18.560;2023-08-07T17:49:09;99611.03;;;19.51;57.34
28797;BME280;24974;54.444;18.560;2023-08-07T17:51:39;99599.41;;;19.21;58.03
28797;BME280;24974;54.444;18.560;2023-08-07T17:54:10;99583.13;;;19.30;57.83
28797;BME280;24974;54.444;18.560;2023-08-07T17:56:41;99585.03;;;19.01;58.58
28797;BME280;24974;54.444;18.560;2023-08-07T17:59:12;99597.00;;;19.12;58.45
28797;BME280;24974;54.444;18.560;2023-08-07T18:01:42;99595.31;;;18.79;59.46
28797;BME280;24974;54.444;18.560;2023-08-07T18:04:13;99599.28;;;18.82;59.89
28797;BME280;24974;54.444;18.560;2023-08-07T18:06:43;99612.59;;;19.35;58.48
28797;BME280;24974;54.444;18.560;2023-08-07T18:09:14;99599.22;;;18.67;60.75
28797;BME280;24974;54.444;18.560;2023-08-07T18:11:45;99610.53;;;19.24;59.32
28797;BME280;24974;54.444;18.560;2023-08-07T18:14:15;99602.81;;;18.71;59.64
28797;BME280;24974;54.444;18.560;2023-08-07T18:16:46;99607.09;;;18.58;60.08
28797;BME280;24974;54.444;18.560;2023-08-07T18:19:16;99606.16;;;19.09;58.95
28797;BME280;24974;54.444;18.560;2023-08-07T18:21:47;99608.81;;;18.84;59.66
28797;BME280;24974;54.444;18.560;2023-08-07T18:24:18;99621.09;;;18.69;60.02
28797;BME280;24974;54.444;18.560;2023-08-07T18:26:48;99617.34;;;19.34;58.65
28797;BME280;24974;54.444;18.560;2023-08-07T18:29:19;99616.94;;;19.25;59.21
28797;BME280;24974;54.444;18.560;2023-08-07T18:31:49;99615.53;;;18.72;59.90
28797;BME280;24974;54.444;18.560;2023-08-07T18:34:20;99628.03;;;19.11;58.46
28797;BME280;24974;54.444;18.560;2023-08-07T18:36:51;99629.63;;;19.15;58.61
28797;BME280;24974;54.444;18.560;2023-08-07T18:39:22;99643.38;;;18.76;58.57
28797;BME280;24974;54.444;18.560;2023-08-07T18:41:52;99630.41;;;19.16;57.91
28797;BME280;24974;54.444;18.560;2023-08-07T18:44:23;99641.16;;;19.14;57.33
28797;BME280;24974;54.444;18.560;2023-08-07T18:46:54;99640.47;;;19.45;56.33
28797;BME280;24974;54.444;18.560;2023-08-07T18:49:24;99633.56;;;19.07;57.27
28797;BME280;24974;54.444;18.560;2023-08-07T18:51:55;99633.44;;;18.75;57.45
28797;BME280;24974;54.444;18.560;2023-08-07T18:54:25;99613.63;;;18.87;57.02
28797;BME280;24974;54.444;18.560;2023-08-07T18:56:56;99642.34;;;19.16;56.13
28797;BME280;24974;54.444;18.560;2023-08-07T18:59:27;99623.22;;;19.08;56.43
28797;BME280;24974;54.444;18.560;2023-08-07T19:01:57;99623.34;;;18.49;57.96
28797;BME280;24974;54.444;18.560;2023-08-07T19:04:28;99625.38;;;18.56;57.79
28797;BME280;24974;54.444;18.560;2023-08-07T19:06:59;99606.84;;;18.85;57.07
28797;BME280;24974;54.444;18.560;2023-08-07T19:09:29;99614.47;;;19.06;56.68
28797;BME280;24974;54.444;18.560;2023-08-07T19:12:00;99609.72;;;19.03;56.86
28797;BME280;24974;54.444;18.560;2023-08-07T19:14:32;99624.00;;;18.28;59.15
28797;BME280;24974;54.444;18.560;2023-08-07T19:17:03;99616.81;;;18.86;58.08
28797;BME280;24974;54.444;18.560;2023-08-07T19:19:33;99610.72;;;18.66;58.53
28797;BME280;24974;54.444;18.560;2023-08-07T19:22:04;99625.78;;;18.58;59.20
28797;BME280;24974;54.444;18.560;2023-08-07T19:24:35;99613.81;;;18.50;59.65
28797;BME280;24974;54.444;18.560;2023-08-07T19:27:05;99609.53;;;18.67;58.68
28797;BME280;24974;54.444;18.560;2023-08-07T19:29:36;99625.75;;;18.54;59.29
28797;BME280;24974;54.444;18.560;2023-08-07T19:32:07;99618.06;;;18.33;60.24
28797;BME280;24974;54.444;18.560;2023-08-07T19:34:37;99620.59;;;18.60;59.90
28797;BME280;24974;54.444;18.560;2023-08-07T19:37:08;99632.31;;;18.21;60.86
28797;BME280;24974;54.444;18.560;2023-08-07T19:39:38;99625.22;;;18.34;60.49
28797;BME280;24974;54.444;18.560;2023-08-07T19:42:09;99614.06;;;18.27;61.08
28797;BME280;24974;54.444;18.560;2023-08-07T19:44:39;99608.38;;;18.71;59.65
